F/V Harvestor — WDC8229 — position and weather

sailwx.info

Track history (hours):
 
Tides and Currents Weather Stations Pressure Air Temp Water Temp Dewpoint Dewpoint Depression Visibility Wind Speed Wind Dir Waves Ship Positions

F/V Harvestor

Owner: F/V HARVESTOR INC., EDMONDS, WA. More information available from US FCC via Universal Licensing System and Coast Guard Vessel Documentation Center.

Last reported at 2017-May-26 02:29 UTC. Time now 2017-May-26 20:42 UTC.
Position N 47°11' W 122°49'.

Length 40 m.

Type: Fishing. MMSI: 367083650.

Date/timePositionNaut miles runAvg speedWind from/ knotsBaromVisibWave heightAir tempDewpointWater temp
2017-May-26 02:29N 47°11' W 122°49'7 7.2
2017-May-26 01:32N 47°12' W 122°39'3 7.8
2017-May-26 01:11N 47°13' W 122°36'210.2
2017-May-26 01:00N 47°15' W 122°34'5 9.7
2017-May-26 00:31N 47°19' W 122°33'4 8.9
2017-May-26 00:01N 47°24' W 122°32'5 9.2
2017-May-25 23:30N 47°28' W 122°31'5 9.4
2017-May-25 23:01N 47°33' W 122°28'5 9.7
2017-May-25 22:31N 47°38' W 122°28'5 9.0
2017-May-25 22:00N 47°42' W 122°28'4 9.0
2017-May-25 21:30N 47°47' W 122°28'5 9.4
2017-May-25 21:00N 47°51' W 122°29'5 9.5
2017-May-25 20:31N 47°56' W 122°31'510.2
2017-May-25 20:01N 47°59' W 122°37'14 9.7
2017-May-25 18:33N 48°10' W 122°50'1 8.6
2017-May-25 18:29N 48°10' W 122°51'4 8.9
2017-May-25 17:59N 48°11' W 122°58'4 8.6
2017-May-25 17:30N 48°11' W 123°04'5 8.6
2017-May-25 16:57N 48°11' W 123°11'3 6.4
2017-May-25 16:30N 48°10' W 123°15'3 5.6
2017-May-25 16:00N 48°09' W 123°19'3 7.0
2017-May-25 15:31N 48°08' W 123°24'2 4.2
2017-May-25 14:59N 48°08' W 123°27'1 1.4
2017-May-25 14:00N 48°08' W 123°25'0 0.1
2017-May-25 13:28N 48°08' W 123°25'0 0.0
2017-May-25 13:00N 48°08' W 123°25'0 0.1
2017-May-25 12:30N 48°08' W 123°25'0 0.0
2017-May-25 12:01N 48°08' W 123°25'2 3.4
2017-May-25 11:31N 48°08' W 123°23'4 8.4
2017-May-25 11:01N 48°09' W 123°17'5 7.7
2017-May-25 10:25N 48°11' W 123°11'4 7.1
2017-May-25 09:53N 48°13' W 123°05'4 8.0
2017-May-25 09:26N 48°12' W 122°60'8 7.7
2017-May-25 08:25N 48°12' W 122°48'3 6.1
2017-May-25 07:55N 48°10' W 122°44'11 7.6
2017-May-25 06:31N 48°01' W 122°36'4 8.8
2017-May-25 06:00N 47°57' W 122°32'4 8.5
2017-May-25 05:31N 47°54' W 122°28'4 8.8
2017-May-25 05:01N 47°50' W 122°27'4 8.9
2017-May-25 04:31N 47°45' W 122°26'4 8.4
2017-May-25 04:01N 47°41' W 122°27'4 8.6
2017-May-25 03:30N 47°37' W 122°27'4 7.8
2017-May-25 03:00N 47°33' W 122°28'4 8.2
2017-May-25 02:30N 47°29' W 122°30'4 8.2
2017-May-25 01:59N 47°25' W 122°32'4 8.5
2017-May-25 01:30N 47°21' W 122°32'5 8.4
2017-May-25 00:55N 47°16' W 122°33'3 0.1
2017-May-24 00:32N 47°13' W 122°36'2 8.0
2017-May-24 00:15N 47°15' W 122°34'4 7.9
2017-May-23 23:47N 47°19' W 122°33'4 8.0
2017-May-23 23:14N 47°23' W 122°32'2 9.0
2017-May-23 23:01N 47°25' W 122°32'5 9.3
2017-May-23 22:31N 47°30' W 122°30'5 9.7
2017-May-23 22:01N 47°34' W 122°27'4 8.9
2017-May-23 21:30N 47°38' W 122°23'3 5.2
2017-May-23 21:01N 47°39' W 122°26'5 9.4
2017-May-23 20:30N 47°44' W 122°28'5 9.8
2017-May-23 20:00N 47°49' W 122°28'5 9.2
2017-May-23 19:31N 47°53' W 122°30'5 9.0
2017-May-23 19:00N 47°56' W 122°34'6 9.1
2017-May-23 18:22N 48°01' W 122°39'7 8.8
2017-May-23 17:35N 48°08' W 122°43'3 9.7
2017-May-23 17:19N 48°09' W 122°46'310.2
2017-May-23 17:01N 48°10' W 122°50'5 8.9
2017-May-23 16:30N 48°11' W 122°57'4 8.3
2017-May-23 16:01N 48°12' W 123°03'4 8.5
2017-May-23 15:30N 48°11' W 123°09'3 6.7
2017-May-23 15:00N 48°10' W 123°14'3 6.1
2017-May-23 14:31N 48°09' W 123°18'5 4.6
2017-May-23 13:31N 48°08' W 123°25'0 0.0
2017-May-23 13:01N 48°08' W 123°25'0 0.0
2017-May-23 12:31N 48°08' W 123°25'0 0.1
2017-May-23 12:01N 48°08' W 123°25'2 4.6
2017-May-23 11:31N 48°08' W 123°22'4 9.0
2017-May-23 11:01N 48°10' W 123°15'4 8.6
2017-May-23 10:30N 48°12' W 123°10'4 8.0
2017-May-23 10:00N 48°13' W 123°04'4 8.1
2017-May-23 09:31N 48°12' W 122°58'4 7.8
2017-May-23 09:00N 48°12' W 122°52'4 6.5
2017-May-23 08:26N 48°11' W 122°46'3 5.8
2017-May-23 07:59N 48°10' W 122°43'3 5.2
2017-May-23 07:29N 48°08' W 122°40'10 6.6
2017-May-23 05:58N 47°59' W 122°35'3 6.9
2017-May-23 05:30N 47°57' W 122°31'4 7.6
2017-May-23 05:01N 47°53' W 122°28'4 8.1
2017-May-23 04:31N 47°49' W 122°27'4 8.0
2017-May-23 04:01N 47°45' W 122°26'4 7.7
2017-May-23 03:30N 47°42' W 122°27'4 7.9
2017-May-23 03:01N 47°38' W 122°27'4 7.8
2017-May-23 02:31N 47°34' W 122°27'4 8.1
2017-May-23 02:01N 47°30' W 122°29'4 8.2
2017-May-23 01:31N 47°26' W 122°31'5 8.4
2017-May-23 00:52N 47°21' W 122°32'4 8.7
2017-May-23 00:27N 47°17' W 122°32'5 9.7
2017-May-22 23:57N 47°13' W 122°36'9 0.4
2017-May-21 22:56N 47°11' W 122°49'6 7.1
2017-May-21 22:04N 47°11' W 122°40'1 8.9
2017-May-21 21:58N 47°12' W 122°39'4 8.4
2017-May-21 21:30N 47°14' W 122°35'5 9.0
2017-May-21 21:01N 47°18' W 122°33'4 8.7
2017-May-21 20:31N 47°23' W 122°32'4 8.9
2017-May-21 20:00N 47°27' W 122°31'5 9.5
2017-May-21 19:31N 47°31' W 122°28'5 9.6
2017-May-21 19:01N 47°36' W 122°25'3 5.4
2017-May-21 18:31N 47°38' W 122°23'0 0.1
2017-May-21 18:00N 47°38' W 122°23'0 0.0
2017-May-21 17:31N 47°38' W 122°23'0 0.1
2017-May-21 17:01N 47°38' W 122°23'0 0.0
2017-May-21 16:31N 47°38' W 122°23'0 0.0
2017-May-21 16:01N 47°38' W 122°23'0 0.0
2017-May-21 15:30N 47°38' W 122°23'0 0.0
2017-May-21 15:00N 47°38' W 122°23'0 0.0
2017-May-21 14:01N 47°38' W 122°23'0 0.1
2017-May-21 13:31N 47°38' W 122°23'0 0.1
2017-May-21 13:01N 47°38' W 122°23'0 0.0
2017-May-21 12:31N 47°38' W 122°23'0 0.0
2017-May-21 12:01N 47°38' W 122°23'0 0.0
2017-May-21 11:31N 47°38' W 122°23'0 0.0
2017-May-21 11:01N 47°38' W 122°23'0 0.0
2017-May-21 10:31N 47°38' W 122°23'0 0.0
2017-May-21 10:01N 47°38' W 122°23'0 0.1
2017-May-21 09:31N 47°38' W 122°23'0 0.0
2017-May-21 09:00N 47°38' W 122°23'0 0.0
2017-May-21 08:31N 47°38' W 122°23'0 0.0
2017-May-21 08:01N 47°38' W 122°23'0 0.0
2017-May-21 07:31N 47°38' W 122°23'0 0.1
2017-May-21 07:01N 47°38' W 122°23'0 0.0
2017-May-21 06:31N 47°38' W 122°23'0 0.0
2017-May-21 06:01N 47°38' W 122°23'0 0.0
2017-May-21 05:31N 47°38' W 122°23'0 0.1
2017-May-21 05:01N 47°38' W 122°23'0 0.1
2017-May-21 04:31N 47°38' W 122°23'0 0.1
2017-May-21 04:01N 47°38' W 122°23'0 0.1
2017-May-21 03:31N 47°38' W 122°23'0 0.0
2017-May-21 03:01N 47°38' W 122°23'0 0.1
2017-May-21 02:31N 47°38' W 122°23'0 0.0
2017-May-21 02:01N 47°38' W 122°23'0 0.1
2017-May-21 01:30N 47°38' W 122°23'0 0.0
2017-May-21 01:00N 47°38' W 122°23'0 0.0
2017-May-21 00:31N 47°38' W 122°23'0 0.0
2017-May-21 00:01N 47°38' W 122°23'0 0.0
2017-May-20 23:31N 47°38' W 122°23'0 0.1
2017-May-20 23:00N 47°38' W 122°23'0 0.1
2017-May-20 22:31N 47°38' W 122°23'0 0.0
2017-May-20 22:01N 47°38' W 122°23'0 0.1
2017-May-20 21:31N 47°38' W 122°23'2 3.2
2017-May-20 21:01N 47°38' W 122°25'4 8.7
2017-May-20 20:30N 47°42' W 122°27'5 9.6
2017-May-20 20:00N 47°47' W 122°28'5 9.1
2017-May-20 19:31N 47°52' W 122°29'4 8.3
2017-May-20 19:01N 47°55' W 122°31'4 8.7
2017-May-20 18:30N 47°58' W 122°36'4 8.8
2017-May-20 18:00N 48°02' W 122°39'5 9.0
2017-May-20 17:29N 48°07' W 122°41'5 9.8
2017-May-20 16:59N 48°10' W 122°47'4 9.5
2017-May-20 16:31N 48°11' W 122°53'4 8.7
2017-May-20 16:00N 48°11' W 122°60'4 8.2
2017-May-20 15:30N 48°11' W 123°06'4 7.8
2017-May-20 15:01N 48°10' W 123°12'3 7.0
2017-May-20 14:31N 48°10' W 123°17'6 6.0
2017-May-20 13:31N 48°08' W 123°25'0 0.0
2017-May-20 13:01N 48°08' W 123°25'0 0.0
2017-May-20 12:30N 48°08' W 123°25'0 0.0
2017-May-20 12:01N 48°08' W 123°25'0 0.0
2017-May-20 11:31N 48°08' W 123°25'1 1.8
2017-May-20 11:01N 48°08' W 123°24'5 9.5
2017-May-20 10:30N 48°09' W 123°17'5 9.7
2017-May-20 10:00N 48°12' W 123°10'4 8.7
2017-May-20 09:30N 48°13' W 123°04'4 8.5
2017-May-20 09:00N 48°12' W 122°58'4 8.9
2017-May-20 08:30N 48°12' W 122°51'4 7.8
2017-May-20 08:01N 48°11' W 122°45'4 7.1
2017-May-20 07:27N 48°08' W 122°41'6 6.5
2017-May-20 06:36N 48°03' W 122°38'2 6.6
2017-May-20 06:21N 48°02' W 122°37'2 6.1
2017-May-20 05:57N 47°59' W 122°35'3 6.2
2017-May-20 05:30N 47°57' W 122°32'3 7.0
2017-May-20 05:01N 47°55' W 122°29'4 7.1
2017-May-20 04:30N 47°52' W 122°27'4 7.8
2017-May-20 04:01N 47°48' W 122°26'4 7.2
2017-May-20 03:31N 47°44' W 122°26'4 7.2
2017-May-20 03:01N 47°41' W 122°27'4 7.8
2017-May-20 02:31N 47°37' W 122°27'4 7.8
2017-May-20 02:00N 47°33' W 122°28'4 8.6
2017-May-20 01:30N 47°29' W 122°30'4 8.7
2017-May-20 01:00N 47°25' W 122°32'5 9.3
2017-May-20 00:31N 47°20' W 122°33'5 9.2
2017-May-20 00:01N 47°15' W 122°34'5 9.0
2017-May-19 23:28N 47°12' W 122°38'8 7.7
2017-May-19 22:27N 47°11' W 122°50'3 0.2
2017-May-19 02:39N 47°09' W 122°54'4 9.0
2017-May-19 02:15N 47°11' W 122°49'7 7.6
2017-May-19 01:22N 47°11' W 122°39'3 8.8
2017-May-19 01:00N 47°13' W 122°36'4 8.6
2017-May-19 00:30N 47°17' W 122°33'4 7.6
2017-May-19 00:01N 47°21' W 122°33'4 7.9
2017-May-18 23:30N 47°25' W 122°32'4 8.1
2017-May-18 23:00N 47°29' W 122°30'4 8.0
2017-May-18 22:30N 47°32' W 122°28'4 8.4
2017-May-18 22:01N 47°37' W 122°28'4 8.1
2017-May-18 21:31N 47°41' W 122°29'4 7.8
2017-May-18 21:01N 47°44' W 122°28'4 7.1
2017-May-18 20:31N 47°48' W 122°30'2 4.6
2017-May-18 20:01N 47°50' W 122°29'4 8.1
2017-May-18 19:31N 47°54' W 122°31'4 7.2
2017-May-18 19:00N 47°57' W 122°34'4 7.0
2017-May-18 18:30N 47°59' W 122°37'4 7.4
2017-May-18 17:58N 48°03' W 122°40'4 7.9
2017-May-18 17:30N 48°06' W 122°41'4 8.0
2017-May-18 17:01N 48°09' W 122°46'5 9.0
2017-May-18 16:30N 48°10' W 122°52'4 8.6
2017-May-18 16:00N 48°11' W 122°58'4 8.2
2017-May-18 15:30N 48°12' W 123°04'4 7.9
2017-May-18 15:01N 48°11' W 123°10'9 8.6
2017-May-18 14:01N 48°08' W 123°23'2 3.6
2017-May-18 13:30N 48°08' W 123°25'0 0.0
2017-May-18 13:01N 48°08' W 123°25'0 0.0
2017-May-18 12:31N 48°08' W 123°25'0 0.0
2017-May-18 12:01N 48°08' W 123°25'0 0.0
2017-May-18 11:30N 48°08' W 123°25'0 0.0
2017-May-18 11:01N 48°08' W 123°25'3 5.9
2017-May-18 10:31N 48°09' W 123°21'5 9.4
2017-May-18 10:01N 48°11' W 123°15'5 9.4
2017-May-18 09:30N 48°13' W 123°08'5 9.4
2017-May-18 09:01N 48°13' W 123°01'5 9.2
2017-May-18 08:31N 48°12' W 122°54'5 9.1
2017-May-18 08:00N 48°11' W 122°47'5 9.3
2017-May-18 07:27N 48°08' W 122°41'4 7.7
2017-May-18 06:59N 48°05' W 122°38'5 8.2
2017-May-18 06:20N 48°00' W 122°36'3 8.0
2017-May-18 06:00N 47°58' W 122°34'4 7.9
2017-May-18 05:31N 47°56' W 122°29'4 8.1
2017-May-18 05:01N 47°52' W 122°28'4 8.5
2017-May-18 04:31N 47°48' W 122°26'4 8.3
2017-May-18 04:01N 47°43' W 122°26'4 8.2
2017-May-18 03:30N 47°39' W 122°27'4 8.8
2017-May-18 03:01N 47°35' W 122°27'4 8.1
2017-May-18 02:31N 47°31' W 122°29'4 7.9
2017-May-18 02:01N 47°27' W 122°31'4 8.7
2017-May-18 01:31N 47°23' W 122°32'4 8.1
2017-May-18 01:01N 47°19' W 122°33'3 6.4
2017-May-18 00:31N 47°16' W 122°33'4 7.7
2017-May-18 00:00N 47°13' W 122°36'2 0.1
2017-May-17 01:51N 47°11' W 122°39'3 9.2
2017-May-17 01:30N 47°13' W 122°35'611.1
2017-May-17 01:00N 47°19' W 122°33'4 8.9
2017-May-17 00:31N 47°23' W 122°32'4 8.2
2017-May-17 00:00N 47°27' W 122°31'4 8.1
2017-May-16 23:31N 47°31' W 122°29'4 8.8
2017-May-16 23:01N 47°35' W 122°28'4 8.1
2017-May-16 22:31N 47°39' W 122°29'4 7.9
2017-May-16 22:01N 47°43' W 122°28'4 7.9
2017-May-16 21:31N 47°47' W 122°28'4 8.2
2017-May-16 21:01N 47°51' W 122°29'4 7.6
2017-May-16 20:31N 47°55' W 122°30'3 6.6
2017-May-16 20:00N 47°57' W 122°34'3 5.9
2017-May-16 19:30N 47°59' W 122°37'3 5.5
2017-May-16 18:54N 48°02' W 122°39'2 5.2
2017-May-16 18:29N 48°05' W 122°40'3 5.5
2017-May-16 18:00N 48°07' W 122°42'3 5.7
2017-May-16 17:27N 48°09' W 122°45'2 5.6
2017-May-16 17:00N 48°10' W 122°49'3 6.9
2017-May-16 16:30N 48°10' W 122°54'4 7.8
2017-May-16 16:00N 48°11' W 122°60'4 8.3
2017-May-16 15:30N 48°12' W 123°06'4 8.3
2017-May-16 15:01N 48°10' W 123°12'8 8.4
2017-May-16 14:00N 48°08' W 123°24'1 1.9
2017-May-16 13:30N 48°08' W 123°25'0 0.1
2017-May-16 13:00N 48°08' W 123°25'0 0.0
2017-May-16 12:31N 48°08' W 123°25'0 0.0
2017-May-16 12:00N 48°08' W 123°25'0 0.0
2017-May-16 11:30N 48°08' W 123°25'0 0.0
2017-May-16 11:01N 48°08' W 123°25'0 0.0
2017-May-16 10:31N 48°08' W 123°25'0 0.0
2017-May-16 10:01N 48°08' W 123°25'0 0.0
2017-May-16 09:31N 48°08' W 123°25'0 0.4
2017-May-16 09:01N 48°08' W 123°25'4 7.4
2017-May-16 08:31N 48°09' W 123°20'5 9.2
2017-May-16 08:00N 48°11' W 123°13'4 8.9
2017-May-16 07:31N 48°13' W 123°07'4 8.4
2017-May-16 07:00N 48°13' W 123°01'4 8.8
2017-May-16 06:31N 48°12' W 122°54'5 9.2
2017-May-16 06:00N 48°11' W 122°48'5 9.0
2017-May-16 05:29N 48°08' W 122°42'4 8.1
2017-May-16 04:59N 48°05' W 122°38'4 7.5
2017-May-16 04:30N 48°02' W 122°37'4 8.0
2017-May-16 04:00N 47°58' W 122°34'4 8.0
2017-May-16 03:30N 47°56' W 122°29'4 8.2
2017-May-16 03:00N 47°52' W 122°27'4 8.8
2017-May-16 02:31N 47°48' W 122°26'  
Track history (hours):
 
Tides and Currents Weather Stations Pressure Air Temp Water Temp Dewpoint Dewpoint Depression Visibility Wind Speed Wind Dir Waves Ship Positions

F/V Harvestor

Owner: F/V HARVESTOR INC., EDMONDS, WA. More information available from US FCC via Universal Licensing System and Coast Guard Vessel Documentation Center.

Last reported at 2017-May-26 02:29 UTC. Time now 2017-May-26 20:42 UTC.
Position N 47°11' W 122°49'.

Length 40 m.

Type: Fishing. MMSI: 367083650.

Date/timePositionNaut miles runAvg speedWind from/ knotsBaromVisibWave heightAir tempDewpointWater temp
2017-May-26 02:29N 47°11' W 122°49'7 7.2
2017-May-26 01:32N 47°12' W 122°39'3 7.8
2017-May-26 01:11N 47°13' W 122°36'210.2
2017-May-26 01:00N 47°15' W 122°34'5 9.7
2017-May-26 00:31N 47°19' W 122°33'4 8.9
2017-May-26 00:01N 47°24' W 122°32'5 9.2
2017-May-25 23:30N 47°28' W 122°31'5 9.4
2017-May-25 23:01N 47°33' W 122°28'5 9.7
2017-May-25 22:31N 47°38' W 122°28'5 9.0
2017-May-25 22:00N 47°42' W 122°28'4 9.0
2017-May-25 21:30N 47°47' W 122°28'5 9.4
2017-May-25 21:00N 47°51' W 122°29'5 9.5
2017-May-25 20:31N 47°56' W 122°31'510.2
2017-May-25 20:01N 47°59' W 122°37'14 9.7
2017-May-25 18:33N 48°10' W 122°50'1 8.6
2017-May-25 18:29N 48°10' W 122°51'4 8.9
2017-May-25 17:59N 48°11' W 122°58'4 8.6
2017-May-25 17:30N 48°11' W 123°04'5 8.6
2017-May-25 16:57N 48°11' W 123°11'3 6.4
2017-May-25 16:30N 48°10' W 123°15'3 5.6
2017-May-25 16:00N 48°09' W 123°19'3 7.0
2017-May-25 15:31N 48°08' W 123°24'2 4.2
2017-May-25 14:59N 48°08' W 123°27'1 1.4
2017-May-25 14:00N 48°08' W 123°25'0 0.1
2017-May-25 13:28N 48°08' W 123°25'0 0.0
2017-May-25 13:00N 48°08' W 123°25'0 0.1
2017-May-25 12:30N 48°08' W 123°25'0 0.0
2017-May-25 12:01N 48°08' W 123°25'2 3.4
2017-May-25 11:31N 48°08' W 123°23'4 8.4
2017-May-25 11:01N 48°09' W 123°17'5 7.7
2017-May-25 10:25N 48°11' W 123°11'4 7.1
2017-May-25 09:53N 48°13' W 123°05'4 8.0
2017-May-25 09:26N 48°12' W 122°60'8 7.7
2017-May-25 08:25N 48°12' W 122°48'3 6.1
2017-May-25 07:55N 48°10' W 122°44'11 7.6
2017-May-25 06:31N 48°01' W 122°36'4 8.8
2017-May-25 06:00N 47°57' W 122°32'4 8.5
2017-May-25 05:31N 47°54' W 122°28'4 8.8
2017-May-25 05:01N 47°50' W 122°27'4 8.9
2017-May-25 04:31N 47°45' W 122°26'4 8.4
2017-May-25 04:01N 47°41' W 122°27'4 8.6
2017-May-25 03:30N 47°37' W 122°27'4 7.8
2017-May-25 03:00N 47°33' W 122°28'4 8.2
2017-May-25 02:30N 47°29' W 122°30'4 8.2
2017-May-25 01:59N 47°25' W 122°32'4 8.5
2017-May-25 01:30N 47°21' W 122°32'5 8.4
2017-May-25 00:55N 47°16' W 122°33'3 0.1
2017-May-24 00:32N 47°13' W 122°36'2 8.0
2017-May-24 00:15N 47°15' W 122°34'4 7.9
2017-May-23 23:47N 47°19' W 122°33'4 8.0
2017-May-23 23:14N 47°23' W 122°32'2 9.0
2017-May-23 23:01N 47°25' W 122°32'5 9.3
2017-May-23 22:31N 47°30' W 122°30'5 9.7
2017-May-23 22:01N 47°34' W 122°27'4 8.9
2017-May-23 21:30N 47°38' W 122°23'3 5.2
2017-May-23 21:01N 47°39' W 122°26'5 9.4
2017-May-23 20:30N 47°44' W 122°28'5 9.8
2017-May-23 20:00N 47°49' W 122°28'5 9.2
2017-May-23 19:31N 47°53' W 122°30'5 9.0
2017-May-23 19:00N 47°56' W 122°34'6 9.1
2017-May-23 18:22N 48°01' W 122°39'7 8.8
2017-May-23 17:35N 48°08' W 122°43'3 9.7
2017-May-23 17:19N 48°09' W 122°46'310.2
2017-May-23 17:01N 48°10' W 122°50'5 8.9
2017-May-23 16:30N 48°11' W 122°57'4 8.3
2017-May-23 16:01N 48°12' W 123°03'4 8.5
2017-May-23 15:30N 48°11' W 123°09'3 6.7
2017-May-23 15:00N 48°10' W 123°14'3 6.1
2017-May-23 14:31N 48°09' W 123°18'5 4.6
2017-May-23 13:31N 48°08' W 123°25'0 0.0
2017-May-23 13:01N 48°08' W 123°25'0 0.0
2017-May-23 12:31N 48°08' W 123°25'0 0.1
2017-May-23 12:01N 48°08' W 123°25'2 4.6
2017-May-23 11:31N 48°08' W 123°22'4 9.0
2017-May-23 11:01N 48°10' W 123°15'4 8.6
2017-May-23 10:30N 48°12' W 123°10'4 8.0
2017-May-23 10:00N 48°13' W 123°04'4 8.1
2017-May-23 09:31N 48°12' W 122°58'4 7.8
2017-May-23 09:00N 48°12' W 122°52'4 6.5
2017-May-23 08:26N 48°11' W 122°46'3 5.8
2017-May-23 07:59N 48°10' W 122°43'3 5.2
2017-May-23 07:29N 48°08' W 122°40'10 6.6
2017-May-23 05:58N 47°59' W 122°35'3 6.9
2017-May-23 05:30N 47°57' W 122°31'4 7.6
2017-May-23 05:01N 47°53' W 122°28'4 8.1
2017-May-23 04:31N 47°49' W 122°27'4 8.0
2017-May-23 04:01N 47°45' W 122°26'4 7.7
2017-May-23 03:30N 47°42' W 122°27'4 7.9
2017-May-23 03:01N 47°38' W 122°27'4 7.8
2017-May-23 02:31N 47°34' W 122°27'4 8.1
2017-May-23 02:01N 47°30' W 122°29'4 8.2
2017-May-23 01:31N 47°26' W 122°31'5 8.4
2017-May-23 00:52N 47°21' W 122°32'4 8.7
2017-May-23 00:27N 47°17' W 122°32'5 9.7
2017-May-22 23:57N 47°13' W 122°36'9 0.4
2017-May-21 22:56N 47°11' W 122°49'6 7.1
2017-May-21 22:04N 47°11' W 122°40'1 8.9
2017-May-21 21:58N 47°12' W 122°39'4 8.4
2017-May-21 21:30N 47°14' W 122°35'5 9.0
2017-May-21 21:01N 47°18' W 122°33'4 8.7
2017-May-21 20:31N 47°23' W 122°32'4 8.9
2017-May-21 20:00N 47°27' W 122°31'5 9.5
2017-May-21 19:31N 47°31' W 122°28'5 9.6
2017-May-21 19:01N 47°36' W 122°25'3 5.4
2017-May-21 18:31N 47°38' W 122°23'0 0.1
2017-May-21 18:00N 47°38' W 122°23'0 0.0
2017-May-21 17:31N 47°38' W 122°23'0 0.1
2017-May-21 17:01N 47°38' W 122°23'0 0.0
2017-May-21 16:31N 47°38' W 122°23'0 0.0
2017-May-21 16:01N 47°38' W 122°23'0 0.0
2017-May-21 15:30N 47°38' W 122°23'0 0.0
2017-May-21 15:00N 47°38' W 122°23'0 0.0
2017-May-21 14:01N 47°38' W 122°23'0 0.1
2017-May-21 13:31N 47°38' W 122°23'0 0.1
2017-May-21 13:01N 47°38' W 122°23'0 0.0
2017-May-21 12:31N 47°38' W 122°23'0 0.0
2017-May-21 12:01N 47°38' W 122°23'0 0.0
2017-May-21 11:31N 47°38' W 122°23'0 0.0
2017-May-21 11:01N 47°38' W 122°23'0 0.0
2017-May-21 10:31N 47°38' W 122°23'0 0.0
2017-May-21 10:01N 47°38' W 122°23'0 0.1
2017-May-21 09:31N 47°38' W 122°23'0 0.0
2017-May-21 09:00N 47°38' W 122°23'0 0.0
2017-May-21 08:31N 47°38' W 122°23'0 0.0
2017-May-21 08:01N 47°38' W 122°23'0 0.0
2017-May-21 07:31N 47°38' W 122°23'0 0.1
2017-May-21 07:01N 47°38' W 122°23'0 0.0
2017-May-21 06:31N 47°38' W 122°23'0 0.0
2017-May-21 06:01N 47°38' W 122°23'0 0.0
2017-May-21 05:31N 47°38' W 122°23'0 0.1
2017-May-21 05:01N 47°38' W 122°23'0 0.1
2017-May-21 04:31N 47°38' W 122°23'0 0.1
2017-May-21 04:01N 47°38' W 122°23'0 0.1
2017-May-21 03:31N 47°38' W 122°23'0 0.0
2017-May-21 03:01N 47°38' W 122°23'0 0.1
2017-May-21 02:31N 47°38' W 122°23'0 0.0
2017-May-21 02:01N 47°38' W 122°23'0 0.1
2017-May-21 01:30N 47°38' W 122°23'0 0.0
2017-May-21 01:00N 47°38' W 122°23'0 0.0
2017-May-21 00:31N 47°38' W 122°23'0 0.0
2017-May-21 00:01N 47°38' W 122°23'0 0.0
2017-May-20 23:31N 47°38' W 122°23'0 0.1
2017-May-20 23:00N 47°38' W 122°23'0 0.1
2017-May-20 22:31N 47°38' W 122°23'0 0.0
2017-May-20 22:01N 47°38' W 122°23'0 0.1
2017-May-20 21:31N 47°38' W 122°23'2 3.2
2017-May-20 21:01N 47°38' W 122°25'4 8.7
2017-May-20 20:30N 47°42' W 122°27'5 9.6
2017-May-20 20:00N 47°47' W 122°28'5 9.1
2017-May-20 19:31N 47°52' W 122°29'4 8.3
2017-May-20 19:01N 47°55' W 122°31'4 8.7
2017-May-20 18:30N 47°58' W 122°36'4 8.8
2017-May-20 18:00N 48°02' W 122°39'5 9.0
2017-May-20 17:29N 48°07' W 122°41'5 9.8
2017-May-20 16:59N 48°10' W 122°47'4 9.5
2017-May-20 16:31N 48°11' W 122°53'4 8.7
2017-May-20 16:00N 48°11' W 122°60'4 8.2
2017-May-20 15:30N 48°11' W 123°06'4 7.8
2017-May-20 15:01N 48°10' W 123°12'3 7.0
2017-May-20 14:31N 48°10' W 123°17'6 6.0
2017-May-20 13:31N 48°08' W 123°25'0 0.0
2017-May-20 13:01N 48°08' W 123°25'0 0.0
2017-May-20 12:30N 48°08' W 123°25'0 0.0
2017-May-20 12:01N 48°08' W 123°25'0 0.0
2017-May-20 11:31N 48°08' W 123°25'1 1.8
2017-May-20 11:01N 48°08' W 123°24'5 9.5
2017-May-20 10:30N 48°09' W 123°17'5 9.7
2017-May-20 10:00N 48°12' W 123°10'4 8.7
2017-May-20 09:30N 48°13' W 123°04'4 8.5
2017-May-20 09:00N 48°12' W 122°58'4 8.9
2017-May-20 08:30N 48°12' W 122°51'4 7.8
2017-May-20 08:01N 48°11' W 122°45'4 7.1
2017-May-20 07:27N 48°08' W 122°41'6 6.5
2017-May-20 06:36N 48°03' W 122°38'2 6.6
2017-May-20 06:21N 48°02' W 122°37'2 6.1
2017-May-20 05:57N 47°59' W 122°35'3 6.2
2017-May-20 05:30N 47°57' W 122°32'3 7.0
2017-May-20 05:01N 47°55' W 122°29'4 7.1
2017-May-20 04:30N 47°52' W 122°27'4 7.8
2017-May-20 04:01N 47°48' W 122°26'4 7.2
2017-May-20 03:31N 47°44' W 122°26'4 7.2
2017-May-20 03:01N 47°41' W 122°27'4 7.8
2017-May-20 02:31N 47°37' W 122°27'4 7.8
2017-May-20 02:00N 47°33' W 122°28'4 8.6
2017-May-20 01:30N 47°29' W 122°30'4 8.7
2017-May-20 01:00N 47°25' W 122°32'5 9.3
2017-May-20 00:31N 47°20' W 122°33'5 9.2
2017-May-20 00:01N 47°15' W 122°34'5 9.0
2017-May-19 23:28N 47°12' W 122°38'8 7.7
2017-May-19 22:27N 47°11' W 122°50'3 0.2
2017-May-19 02:39N 47°09' W 122°54'4 9.0
2017-May-19 02:15N 47°11' W 122°49'7 7.6
2017-May-19 01:22N 47°11' W 122°39'3 8.8
2017-May-19 01:00N 47°13' W 122°36'4 8.6
2017-May-19 00:30N 47°17' W 122°33'4 7.6
2017-May-19 00:01N 47°21' W 122°33'4 7.9
2017-May-18 23:30N 47°25' W 122°32'4 8.1
2017-May-18 23:00N 47°29' W 122°30'4 8.0
2017-May-18 22:30N 47°32' W 122°28'4 8.4
2017-May-18 22:01N 47°37' W 122°28'4 8.1
2017-May-18 21:31N 47°41' W 122°29'4 7.8
2017-May-18 21:01N 47°44' W 122°28'4 7.1
2017-May-18 20:31N 47°48' W 122°30'2 4.6
2017-May-18 20:01N 47°50' W 122°29'4 8.1
2017-May-18 19:31N 47°54' W 122°31'4 7.2
2017-May-18 19:00N 47°57' W 122°34'4 7.0
2017-May-18 18:30N 47°59' W 122°37'4 7.4
2017-May-18 17:58N 48°03' W 122°40'4 7.9
2017-May-18 17:30N 48°06' W 122°41'4 8.0
2017-May-18 17:01N 48°09' W 122°46'5 9.0
2017-May-18 16:30N 48°10' W 122°52'4 8.6
2017-May-18 16:00N 48°11' W 122°58'4 8.2
2017-May-18 15:30N 48°12' W 123°04'4 7.9
2017-May-18 15:01N 48°11' W 123°10'9 8.6
2017-May-18 14:01N 48°08' W 123°23'2 3.6
2017-May-18 13:30N 48°08' W 123°25'0 0.0
2017-May-18 13:01N 48°08' W 123°25'0 0.0
2017-May-18 12:31N 48°08' W 123°25'0 0.0
2017-May-18 12:01N 48°08' W 123°25'0 0.0
2017-May-18 11:30N 48°08' W 123°25'0 0.0
2017-May-18 11:01N 48°08' W 123°25'3 5.9
2017-May-18 10:31N 48°09' W 123°21'5 9.4
2017-May-18 10:01N 48°11' W 123°15'5 9.4
2017-May-18 09:30N 48°13' W 123°08'5 9.4
2017-May-18 09:01N 48°13' W 123°01'5 9.2
2017-May-18 08:31N 48°12' W 122°54'5 9.1
2017-May-18 08:00N 48°11' W 122°47'5 9.3
2017-May-18 07:27N 48°08' W 122°41'4 7.7
2017-May-18 06:59N 48°05' W 122°38'5 8.2
2017-May-18 06:20N 48°00' W 122°36'3 8.0
2017-May-18 06:00N 47°58' W 122°34'4 7.9
2017-May-18 05:31N 47°56' W 122°29'4 8.1
2017-May-18 05:01N 47°52' W 122°28'4 8.5
2017-May-18 04:31N 47°48' W 122°26'4 8.3
2017-May-18 04:01N 47°43' W 122°26'4 8.2
2017-May-18 03:30N 47°39' W 122°27'4 8.8
2017-May-18 03:01N 47°35' W 122°27'4 8.1
2017-May-18 02:31N 47°31' W 122°29'4 7.9
2017-May-18 02:01N 47°27' W 122°31'4 8.7
2017-May-18 01:31N 47°23' W 122°32'4 8.1
2017-May-18 01:01N 47°19' W 122°33'3 6.4
2017-May-18 00:31N 47°16' W 122°33'4 7.7
2017-May-18 00:00N 47°13' W 122°36'2 0.1
2017-May-17 01:51N 47°11' W 122°39'3 9.2
2017-May-17 01:30N 47°13' W 122°35'611.1
2017-May-17 01:00N 47°19' W 122°33'4 8.9
2017-May-17 00:31N 47°23' W 122°32'4 8.2
2017-May-17 00:00N 47°27' W 122°31'4 8.1
2017-May-16 23:31N 47°31' W 122°29'4 8.8
2017-May-16 23:01N 47°35' W 122°28'4 8.1
2017-May-16 22:31N 47°39' W 122°29'4 7.9
2017-May-16 22:01N 47°43' W 122°28'4 7.9
2017-May-16 21:31N 47°47' W 122°28'4 8.2
2017-May-16 21:01N 47°51' W 122°29'4 7.6
2017-May-16 20:31N 47°55' W 122°30'3 6.6
2017-May-16 20:00N 47°57' W 122°34'3 5.9
2017-May-16 19:30N 47°59' W 122°37'3 5.5
2017-May-16 18:54N 48°02' W 122°39'2 5.2
2017-May-16 18:29N 48°05' W 122°40'3 5.5
2017-May-16 18:00N 48°07' W 122°42'3 5.7
2017-May-16 17:27N 48°09' W 122°45'2 5.6
2017-May-16 17:00N 48°10' W 122°49'3 6.9
2017-May-16 16:30N 48°10' W 122°54'4 7.8
2017-May-16 16:00N 48°11' W 122°60'4 8.3
2017-May-16 15:30N 48°12' W 123°06'4 8.3
2017-May-16 15:01N 48°10' W 123°12'8 8.4
2017-May-16 14:00N 48°08' W 123°24'1 1.9
2017-May-16 13:30N 48°08' W 123°25'0 0.1
2017-May-16 13:00N 48°08' W 123°25'0 0.0
2017-May-16 12:31N 48°08' W 123°25'0 0.0
2017-May-16 12:00N 48°08' W 123°25'0 0.0
2017-May-16 11:30N 48°08' W 123°25'0 0.0
2017-May-16 11:01N 48°08' W 123°25'0 0.0
2017-May-16 10:31N 48°08' W 123°25'0 0.0
2017-May-16 10:01N 48°08' W 123°25'0 0.0
2017-May-16 09:31N 48°08' W 123°25'0 0.4
2017-May-16 09:01N 48°08' W 123°25'4 7.4
2017-May-16 08:31N 48°09' W 123°20'5 9.2
2017-May-16 08:00N 48°11' W 123°13'4 8.9
2017-May-16 07:31N 48°13' W 123°07'4 8.4
2017-May-16 07:00N 48°13' W 123°01'4 8.8
2017-May-16 06:31N 48°12' W 122°54'5 9.2
2017-May-16 06:00N 48°11' W 122°48'5 9.0
2017-May-16 05:29N 48°08' W 122°42'4 8.1
2017-May-16 04:59N 48°05' W 122°38'4 7.5
2017-May-16 04:30N 48°02' W 122°37'4 8.0
2017-May-16 04:00N 47°58' W 122°34'4 8.0
2017-May-16 03:30N 47°56' W 122°29'4 8.2
2017-May-16 03:00N 47°52' W 122°27'4 8.8
2017-May-16 02:31N 47°48' W 122°26'  

Dump ship's entire track history